Time;durP1;ratioP1;P1;durP2;ratioP2;P2;SDS_P1;SDS_P2;PMS_P1;PMS_P2;Temp;Humidity;BMP_temperature;BMP_pressure;BME280_temperature;BME280_humidity;BME280_pressure;Samples;Min_cycle;Max_cycle;Signal;HPM_P1;HPM_P2
2022/03/02 00:02:20;;;;;;;14.93;8.00;;;;;;;2.70;80.98;100971.44;4971555;28;20034;-60
2022/03/02 00:04:46;;;;;;;14.90;8.60;;;;;;;2.75;80.41;100973.25;4963259;28;20031;-60
2022/03/02 00:07:11;;;;;;;19.17;8.73;;;;;;;2.73;80.35;100970.63;4952734;28;20143;-60
2022/03/02 00:09:37;;;;;;;14.20;7.90;;;;;;;2.79;79.90;100969.78;4968694;28;20044;-60
2022/03/02 00:12:03;;;;;;;15.45;8.32;;;;;;;2.77;79.67;100966.28;4972014;28;20101;-60
2022/03/02 00:14:28;;;;;;;18.40;7.85;;;;;;;2.79;80.73;100959.28;4971864;28;20097;-60
2022/03/02 00:16:54;;;;;;;17.15;8.13;;;;;;;2.89;80.17;100966.44;4971706;28;20026;-60
2022/03/02 00:19:19;;;;;;;16.00;9.07;;;;;;;2.84;80.26;100952.34;4971770;28;20034;-60
2022/03/02 00:21:45;;;;;;;18.55;10.30;;;;;;;3.00;79.30;100962.22;4971328;28;20022;-60
2022/03/02 00:24:10;;;;;;;24.35;9.52;;;;;;;3.03;79.78;100963.09;4971950;28;20062;-60
2022/03/02 00:26:36;;;;;;;19.45;9.98;;;;;;;3.08;79.66;100961.44;4970506;28;20476;-61
2022/03/02 00:29:02;;;;;;;17.60;9.68;;;;;;;3.09;79.39;100967.56;4970436;28;20050;-61
2022/03/02 00:31:28;;;;;;;24.67;10.90;;;;;;;3.03;80.76;100971.00;4971374;28;20027;-60
2022/03/02 00:33:53;;;;;;;19.88;10.98;;;;;;;3.06;81.26;100968.44;4970304;28;20038;-61
2022/03/02 00:36:20;;;;;;;24.15;12.65;;;;;;;3.04;81.24;100962.28;4951909;28;20028;-61
2022/03/02 00:38:46;;;;;;;22.33;13.05;;;;;;;3.12;80.93;100964.97;4951967;28;20035;-61
2022/03/02 00:41:11;;;;;;;28.25;13.88;;;;;;;3.17;80.15;100958.03;4952522;28;20061;-60
2022/03/02 00:43:36;;;;;;;24.80;14.32;;;;;;;3.22;79.60;100951.09;4952329;28;20031;-60
2022/03/02 00:46:03;;;;;;;26.67;14.40;;;;;;;3.18;78.61;100936.16;4952449;28;20031;-60
2022/03/02 00:48:28;;;;;;;24.88;13.85;;;;;;;3.29;78.09;100940.69;4952111;28;20106;-61
2022/03/02 00:50:54;;;;;;;26.90;13.60;;;;;;;3.31;75.93;100941.56;4951624;28;20113;-61
2022/03/02 00:53:20;;;;;;;26.58;12.85;;;;;;;3.24;76.43;100944.09;4952414;28;20479;-61
2022/03/02 00:55:45;;;;;;;24.63;13.27;;;;;;;3.16;76.31;100948.41;4952056;28;20031;-60
2022/03/02 00:58:11;;;;;;;23.67;12.85;;;;;;;3.17;77.02;100958.03;4952493;28;20155;-60
2022/03/02 01:00:37;;;;;;;25.58;12.52;;;;;;;3.07;77.27;100957.03;4950735;28;20046;-60
2022/03/02 01:03:03;;;;;;;26.30;13.70;;;;;;;3.00;76.73;100946.44;4970858;28;20035;-60
2022/03/02 01:05:29;;;;;;;26.17;14.07;;;;;;;2.89;77.66;100941.06;4971041;28;20053;-60
2022/03/02 01:07:54;;;;;;;21.42;12.70;;;;;;;2.80;78.33;100932.19;4971321;28;20081;-61
2022/03/02 01:10:20;;;;;;;24.45;12.20;;;;;;;2.76;78.54;100918.13;4970849;28;20034;-61
2022/03/02 01:12:46;;;;;;;30.23;13.98;;;;;;;2.75;79.01;100923.34;4971114;28;20041;-61
2022/03/02 01:15:13;;;;;;;29.60;15.05;;;;;;;2.70;80.51;100913.66;4971338;28;20109;-61
2022/03/02 01:17:39;;;;;;;24.63;13.70;;;;;;;2.61;79.84;100913.53;4971307;28;20054;-61
2022/03/02 01:20:07;;;;;;;28.75;14.30;;;;;;;2.48;79.51;100916.88;4970288;28;20030;-60
2022/03/02 01:22:33;;;;;;;26.17;12.80;;;;;;;2.50;79.04;100920.38;4971228;28;20052;-60
2022/03/02 01:24:58;;;;;;;25.95;13.13;;;;;;;2.46;79.76;100913.34;4971103;28;20450;-60
2022/03/02 01:27:24;;;;;;;23.67;12.40;;;;;;;2.46;79.97;100908.06;4969651;28;20102;-60
2022/03/02 01:29:51;;;;;;;26.92;12.48;;;;;;;2.43;79.74;100908.03;4968770;28;20102;-60
2022/03/02 01:32:17;;;;;;;28.23;12.10;;;;;;;2.43;81.10;100912.41;4970484;28;20410;-60
2022/03/02 01:34:42;;;;;;;18.30;11.52;;;;;;;2.32;80.75;100903.50;4965465;28;20077;-60
2022/03/02 01:37:07;;;;;;;22.48;11.55;;;;;;;2.19;82.15;100902.41;4970546;28;20118;-60
2022/03/02 01:39:33;;;;;;;20.77;11.82;;;;;;;2.09;82.87;100900.50;4970320;28;20420;-60
2022/03/02 01:41:58;;;;;;;20.60;11.57;;;;;;;2.07;83.50;100907.50;4970834;28;20038;-60
2022/03/02 01:44:24;;;;;;;18.33;11.00;;;;;;;1.99;83.64;100908.22;4971144;28;20023;-60
2022/03/02 01:46:50;;;;;;;20.55;10.40;;;;;;;1.93;83.15;100900.28;4971892;28;20025;-60
2022/03/02 01:49:15;;;;;;;19.58;10.27;;;;;;;2.04;84.07;100898.69;4974249;28;20030;-60
2022/03/02 01:51:41;;;;;;;16.58;10.20;;;;;;;1.98;83.70;100902.09;4974421;28;20030;-60
2022/03/02 01:54:07;;;;;;;20.88;11.00;;;;;;;1.95;84.89;100883.69;4974752;28;20031;-60
2022/03/02 01:56:34;;;;;;;22.35;11.35;;;;;;;1.95;84.08;100880.16;4974465;28;20030;-60
2022/03/02 01:59:00;;;;;;;16.63;9.70;;;;;;;1.98;84.36;100882.84;4973546;28;20039;-60
2022/03/02 02:01:26;;;;;;;18.13;11.05;;;;;;;2.02;84.04;100882.03;4973704;28;20443;-60
2022/03/02 02:03:52;;;;;;;18.52;9.13;;;;;;;1.87;84.18;100879.16;4973101;28;20034;-60
2022/03/02 02:06:18;;;;;;;17.88;8.60;;;;;;;1.82;85.28;100884.34;4954787;28;20030;-60
2022/03/02 02:08:44;;;;;;;18.85;9.90;;;;;;;1.87;85.96;100887.94;4963619;28;20030;-60
2022/03/02 02:11:11;;;;;;;18.30;10.13;;;;;;;1.83;85.45;100887.88;4974034;28;20038;-60
2022/03/02 02:13:37;;;;;;;22.15;9.63;;;;;;;1.72;86.76;100890.31;4974417;28;20034;-60
2022/03/02 02:16:04;;;;;;;18.20;9.93;;;;;;;1.69;86.41;100881.50;4974319;28;20475;-60
2022/03/02 02:18:30;;;;;;;18.95;10.25;;;;;;;1.66;86.45;100887.59;4973739;28;20066;-59
2022/03/02 02:21:07;;;;;;;17.75;10.35;;;;;;;1.78;86.72;100879.91;4973520;28;20027;-60
2022/03/02 02:23:34;;;;;;;20.80;9.23;;;;;;;1.71;87.82;100885.94;4973899;28;20030;-60
2022/03/02 02:25:59;;;;;;;19.27;9.90;;;;;;;1.68;87.02;100882.38;4973697;28;20026;-60
2022/03/02 02:28:27;;;;;;;18.83;10.30;;;;;;;1.64;87.77;100884.06;4973595;28;20081;-59
2022/03/02 02:30:54;;;;;;;17.60;10.05;;;;;;;1.62;88.09;100871.75;4973372;28;20077;-60
2022/03/02 02:33:20;;;;;;;18.25;9.82;;;;;;;1.62;88.16;100862.16;4973933;28;20050;-60
2022/03/02 02:35:45;;;;;;;23.85;10.73;;;;;;;1.72;88.17;100874.56;4956995;28;20095;-60
2022/03/02 02:38:11;;;;;;;17.58;9.43;;;;;;;1.73;89.04;100876.31;4954116;28;20035;-60
2022/03/02 02:40:39;;;;;;;24.63;10.43;;;;;;;1.74;88.30;100877.22;4953989;28;20027;-60
2022/03/02 02:43:05;;;;;;;19.65;10.35;;;;;;;1.74;88.35;100875.47;4953246;29;20605;-60
2022/03/02 02:45:31;;;;;;;17.50;10.38;;;;;;;1.77;88.11;100869.41;4954273;28;20625;-60
2022/03/02 02:47:58;;;;;;;20.35;10.35;;;;;;;1.67;88.29;100872.72;4954106;28;20019;-60
2022/03/02 02:50:29;;;;;;;17.67;11.05;;;;;;;1.66;87.26;100869.25;4952324;29;20023;-59
2022/03/02 02:52:57;;;;;;;18.85;10.52;;;;;;;1.60;87.09;100866.50;4954082;28;20038;-60
2022/03/02 02:55:25;;;;;;;17.90;10.68;;;;;;;1.61;87.07;100860.41;4954159;28;20649;-60
2022/03/02 02:57:51;;;;;;;19.40;10.40;;;;;;;1.54;88.30;100860.25;4953592;28;20102;-60
2022/03/02 03:00:19;;;;;;;16.88;9.55;;;;;;;1.43;88.56;100847.00;4953528;28;20039;-60
2022/03/02 03:02:46;;;;;;;20.13;10.70;;;;;;;1.47;88.71;100856.66;4953774;28;20034;-60
2022/03/02 03:05:14;;;;;;;19.27;10.13;;;;;;;1.48;88.61;100855.81;4954558;28;20039;-60
2022/03/02 03:07:40;;;;;;;18.42;9.63;;;;;;;1.41;88.83;100859.19;4971588;28;20026;-60
2022/03/02 03:10:07;;;;;;;17.90;8.73;;;;;;;1.34;88.58;100862.53;4972873;28;20479;-61
2022/03/02 03:12:34;;;;;;;22.90;11.27;;;;;;;1.23;90.20;100851.00;4973367;28;20034;-60
2022/03/02 03:15:00;;;;;;;20.05;9.82;;;;;;;1.22;89.41;100849.22;4973193;28;20030;-61
2022/03/02 03:17:26;;;;;;;19.13;12.05;;;;;;;1.22;90.06;100844.88;4972886;28;20043;-60
2022/03/02 03:19:51;;;;;;;21.27;10.40;;;;;;;1.21;89.80;100844.84;4972033;28;20034;-60
2022/03/02 03:22:17;;;;;;;21.08;10.80;;;;;;;1.22;90.63;100843.97;4973195;28;20034;-60
2022/03/02 03:24:42;;;;;;;19.67;10.93;;;;;;;1.19;89.83;100838.69;4972407;28;20039;-61
2022/03/02 03:27:08;;;;;;;19.27;10.43;;;;;;;1.26;90.48;100832.72;4972932;28;20029;-60
2022/03/02 03:29:33;;;;;;;18.25;9.98;;;;;;;1.29;89.19;100822.28;4972566;28;20058;-60
2022/03/02 03:31:58;;;;;;;20.15;9.73;;;;;;;1.16;89.04;100808.09;4972481;28;20078;-60
2022/03/02 03:34:24;;;;;;;21.63;10.73;;;;;;;1.29;89.66;100827.50;4972262;28;20030;-60
2022/03/02 03:36:52;;;;;;;22.63;10.93;;;;;;;1.25;89.07;100828.34;4971613;28;20046;-61
2022/03/02 03:39:18;;;;;;;21.65;10.73;;;;;;;1.24;88.79;100826.56;4971360;28;20101;-61
2022/03/02 03:41:44;;;;;;;21.38;10.18;;;;;;;1.21;89.34;100826.50;4972272;28;20479;-61
2022/03/02 03:44:10;;;;;;;20.15;10.73;;;;;;;1.15;89.35;100834.25;4972346;28;20042;-60
2022/03/02 03:46:35;;;;;;;19.15;9.93;;;;;;;1.12;88.89;100831.59;4972601;28;20026;-61
2022/03/02 03:49:00;;;;;;;20.05;11.00;;;;;;;1.02;88.26;100832.28;4972168;28;20057;-60
2022/03/02 03:51:26;;;;;;;20.25;11.27;;;;;;;0.98;88.81;100825.22;4972780;28;20026;-61
2022/03/02 03:53:51;;;;;;;17.75;9.85;;;;;;;0.88;88.45;100823.28;4972381;28;20069;-61
2022/03/02 03:56:17;;;;;;;20.80;9.18;;;;;;;0.82;90.18;100825.78;4972665;28;20035;-61
2022/03/02 03:58:42;;;;;;;22.02;11.13;;;;;;;0.85;89.80;100834.59;4972127;28;20403;-61
2022/03/02 04:01:07;;;;;;;19.40;10.82;;;;;;;0.86;90.21;100840.69;4972572;28;20390;-61
2022/03/02 04:03:35;;;;;;;19.38;10.60;;;;;;;0.83;90.48;100832.78;4971972;28;20073;-61
2022/03/02 04:06:00;;;;;;;16.95;9.57;;;;;;;0.76;89.61;100830.88;4960015;28;20049;-61
2022/03/02 04:08:26;;;;;;;18.02;10.98;;;;;;;0.70;90.01;100833.38;4972303;28;20018;-61
2022/03/02 04:10:51;;;;;;;21.50;10.57;;;;;;;0.65;90.24;100829.78;4971257;28;20033;-61
2022/03/02 04:13:17;;;;;;;21.13;12.43;;;;;;;0.69;90.72;100834.25;4971926;28;20019;-60
2022/03/02 04:15:42;;;;;;;19.65;9.63;;;;;;;0.60;90.67;100821.84;4972178;28;20061;-62
2022/03/02 04:18:09;;;;;;;19.23;10.45;;;;;;;0.63;90.33;100826.25;4971723;28;20042;-61
2022/03/02 04:20:35;;;;;;;18.30;9.73;;;;;;;0.61;90.25;100830.59;4971691;28;20369;-61
2022/03/02 04:23:01;;;;;;;19.25;10.75;;;;;;;0.57;90.49;100821.81;4971347;28;20068;-61
2022/03/02 04:25:27;;;;;;;19.00;9.68;;;;;;;0.60;90.27;100820.97;4971792;28;20038;-61
2022/03/02 04:27:55;;;;;;;15.13;9.48;;;;;;;0.57;90.35;100815.69;4971938;28;20379;-61
2022/03/02 04:30:21;;;;;;;18.38;9.48;;;;;;;0.50;91.22;100809.44;4971188;28;20035;-61
2022/03/02 04:32:46;;;;;;;18.77;9.90;;;;;;;0.51;90.72;100799.88;4971472;28;20101;-61
2022/03/02 04:35:13;;;;;;;18.83;9.60;;;;;;;0.47;90.71;100805.88;4959769;28;20023;-61
2022/03/02 04:37:40;;;;;;;18.52;10.00;;;;;;;0.38;90.68;100806.56;4952624;28;20035;-61
2022/03/02 04:40:08;;;;;;;18.23;10.35;;;;;;;0.35;90.73;100798.66;4952104;28;20039;-61
2022/03/02 04:42:34;;;;;;;19.73;10.95;;;;;;;0.35;91.27;100797.75;4952238;28;20033;-61
2022/03/02 04:45:00;;;;;;;17.42;9.95;;;;;;;0.44;91.40;100801.47;4952284;28;20450;-61
2022/03/02 04:47:25;;;;;;;19.58;9.60;;;;;;;0.43;91.86;100806.69;4952225;29;20519;-61
2022/03/02 04:49:51;;;;;;;19.42;10.82;;;;;;;0.39;91.60;100799.59;4952056;28;20027;-61
2022/03/02 04:52:17;;;;;;;23.50;10.80;;;;;;;0.37;91.96;100796.97;4951994;28;20420;-61
2022/03/02 04:57:27;;;;;;;18.27;9.70;;;;;;;0.16;91.23;100796.53;4952231;29;20034;-61
2022/03/02 04:59:52;;;;;;;19.55;11.18;;;;;;;0.24;90.64;100794.06;4951462;28;20039;-61
2022/03/02 05:02:18;;;;;;;25.83;11.13;;;;;;;0.25;90.63;100801.94;4951258;29;20023;-61
2022/03/02 05:04:43;;;;;;;19.77;10.68;;;;;;;0.31;90.90;100802.09;4957231;28;20027;-61
2022/03/02 05:07:09;;;;;;;21.40;10.70;;;;;;;0.35;89.60;100803.88;4971288;28;20031;-61
2022/03/02 05:09:34;;;;;;;19.88;11.02;;;;;;;0.33;90.73;100807.34;4970978;28;20030;-61
2022/03/02 05:12:02;;;;;;;18.73;10.70;;;;;;;0.24;90.42;100796.66;4971231;28;20026;-61
2022/03/02 05:14:28;;;;;;;27.33;12.05;;;;;;;0.20;90.94;100781.78;4970828;28;20027;-61
2022/03/02 05:16:53;;;;;;;20.52;10.77;;;;;;;0.31;90.68;100790.72;4971125;28;20061;-61
2022/03/02 05:19:19;;;;;;;20.30;9.82;;;;;;;0.24;91.01;100788.81;4970653;28;20022;-61
2022/03/02 05:21:44;;;;;;;20.67;9.98;;;;;;;0.21;91.59;100796.63;4972553;28;20046;-61
2022/03/02 05:24:10;;;;;;;17.52;10.30;;;;;;;0.20;91.14;100797.47;4974889;28;20443;-61
2022/03/02 05:26:35;;;;;;;23.35;10.32;;;;;;;0.17;91.52;100792.16;4975659;28;20026;-61
2022/03/02 05:29:01;;;;;;;23.88;10.88;;;;;;;0.19;91.32;100788.72;4974154;28;20030;-61
2022/03/02 05:31:26;;;;;;;24.90;11.50;;;;;;;0.26;91.23;100781.91;4974141;28;20033;-61
2022/03/02 05:33:52;;;;;;;19.20;10.93;;;;;;;0.30;91.70;100789.84;4973609;28;20050;-61
2022/03/02 05:36:19;;;;;;;19.48;9.52;;;;;;;0.32;90.95;100780.28;4955676;29;20531;-61
2022/03/02 05:38:44;;;;;;;18.13;9.63;;;;;;;0.29;91.46;100784.56;4964975;28;20035;-61
2022/03/02 05:41:09;;;;;;;20.77;10.25;;;;;;;0.29;92.20;100781.94;4974024;28;20529;-61
2022/03/02 05:43:35;;;;;;;20.65;10.55;;;;;;;0.41;91.87;100782.22;4974691;28;20026;-61
2022/03/02 05:46:00;;;;;;;22.48;11.55;;;;;;;0.45;91.82;100789.25;4974885;28;20130;-61
2022/03/02 05:48:26;;;;;;;18.27;10.43;;;;;;;0.38;91.58;100792.63;4975018;28;20101;-60
2022/03/02 05:50:51;;;;;;;20.85;10.63;;;;;;;0.17;92.56;100779.06;4974285;28;20034;-61
2022/03/02 05:53:17;;;;;;;29.17;12.77;;;;;;;0.20;92.03;100795.72;4974593;28;20475;-61
2022/03/02 05:55:43;;;;;;;22.23;11.18;;;;;;;0.17;92.09;100793.03;4974345;28;20431;-61
2022/03/02 05:58:08;;;;;;;30.50;11.98;;;;;;;0.19;92.31;100793.06;4974344;28;20059;-61
2022/03/02 06:00:34;;;;;;;19.75;10.52;;;;;;;0.18;92.83;100796.56;4974278;28;20129;-62
2022/03/02 06:02:59;;;;;;;21.95;11.68;;;;;;;0.15;92.63;100804.34;4974591;28;20067;-61
2022/03/02 06:05:25;;;;;;;22.65;11.15;;;;;;;0.14;92.68;100806.06;4960806;28;20034;-61
2022/03/02 06:07:50;;;;;;;18.98;9.85;;;;;;;0.05;92.66;100805.84;4956623;28;20054;-61
2022/03/02 06:10:16;;;;;;;20.83;11.60;;;;;;;0.06;92.37;100810.25;4973648;28;20049;-61
2022/03/02 06:12:41;;;;;;;15.13;9.80;;;;;;;0.05;93.20;100816.31;4974624;28;20037;-60
2022/03/02 06:15:08;;;;;;;20.67;10.63;;;;;;;0.06;93.19;100820.72;4974169;28;20045;-62
2022/03/02 06:17:34;;;;;;;17.77;9.98;;;;;;;0.03;93.52;100823.25;4973916;28;20092;-61
2022/03/02 06:19:59;;;;;;;25.70;11.48;;;;;;;0.05;93.59;100818.06;4973538;28;20026;-61
2022/03/02 06:22:28;;;;;;;16.08;9.45;;;;;;;0.13;93.93;100819.09;4974407;28;20033;-60
2022/03/02 06:24:54;;;;;;;21.13;10.45;;;;;;;0.20;93.79;100807.94;4973801;28;20023;-60
2022/03/02 06:27:21;;;;;;;18.42;10.60;;;;;;;0.28;93.38;100807.22;4973729;28;20118;-60
2022/03/02 06:29:47;;;;;;;22.70;10.82;;;;;;;0.38;92.98;100803.94;4973675;28;20033;-61
2022/03/02 06:32:15;;;;;;;22.33;10.52;;;;;;;0.47;92.54;100793.69;4973529;28;20034;-60
2022/03/02 06:34:42;;;;;;;21.73;10.82;;;;;;;0.60;91.97;100800.03;4965560;28;20066;-60
2022/03/02 06:37:08;;;;;;;19.13;11.15;;;;;;;0.71;91.37;100802.00;4954216;28;20127;-60
2022/03/02 06:39:33;;;;;;;22.15;12.07;;;;;;;0.87;91.25;100803.19;4953880;28;20035;-60
2022/03/02 06:42:49;;;;;;;20.58;10.10;;;;;;;0.95;90.24;100805.09;4954479;28;20031;-60
2022/03/02 06:45:28;;;;;;;22.75;12.93;;;;;;;1.07;90.79;100807.06;4952696;29;20035;-61
2022/03/02 06:48:00;;;;;;;45.08;21.73;;;;;;;1.15;90.03;100803.69;4954080;28;20031;-60
2022/03/02 06:50:30;;;;;;;40.15;20.73;;;;;;;1.33;89.78;100792.66;4953316;28;20454;-61
2022/03/02 06:53:01;;;;;;;31.25;18.50;;;;;;;1.51;88.33;100792.97;4954044;28;20027;-60
2022/03/02 06:55:29;;;;;;;30.63;16.98;;;;;;;1.69;88.25;100788.00;4953843;28;20027;-60
2022/03/02 06:57:56;;;;;;;31.55;17.70;;;;;;;1.80;87.27;100796.91;4953713;28;20031;-60
2022/03/02 07:00:23;;;;;;;34.10;17.15;;;;;;;1.97;86.42;100790.16;4968259;28;20129;-60
2022/03/02 07:02:51;;;;;;;30.65;16.98;;;;;;;2.10;85.54;100788.59;4973065;28;20471;-60
2022/03/02 07:05:19;;;;;;;27.65;15.10;;;;;;;2.24;85.04;100785.28;4972718;28;20034;-60
2022/03/02 07:07:46;;;;;;;38.67;18.05;;;;;;;2.35;83.54;100791.56;4973055;28;20058;-60
2022/03/02 07:10:12;;;;;;;34.58;17.85;;;;;;;2.55;83.24;100797.91;4972603;28;20045;-60
2022/03/02 07:12:39;;;;;;;36.92;18.75;;;;;;;2.70;83.55;100790.22;4973696;28;20035;-60
2022/03/02 07:15:06;;;;;;;35.30;17.10;;;;;;;3.30;82.94;100794.31;4972338;28;20085;-60
2022/03/02 07:17:32;;;;;;;29.95;14.32;;;;;;;3.73;79.02;100799.94;4973022;28;20086;-60
2022/03/02 07:20:03;;;;;;;24.40;12.20;;;;;;;3.94;76.24;100810.63;4972530;28;20026;-60
2022/03/02 07:22:35;;;;;;;21.77;11.43;;;;;;;4.08;74.73;100802.81;4969661;28;20061;-61
2022/03/02 07:25:29;;;;;;;21.67;11.60;;;;;;;4.85;75.65;100806.66;4970496;28;20129;-60
2022/03/02 07:27:57;;;;;;;24.65;13.02;;;;;;;5.93;69.95;100805.03;4970225;28;20130;-60
2022/03/02 07:30:23;;;;;;;25.75;14.00;;;;;;;6.87;64.06;100798.53;4971030;28;20045;-60
2022/03/02 07:32:55;;;;;;;29.95;14.63;;;;;;;7.50;57.86;100800.78;4971981;28;20113;-60
2022/03/02 07:35:23;;;;;;;30.42;15.63;;;;;;;7.36;57.03;100800.00;4961837;28;20449;-62
2022/03/02 07:37:49;;;;;;;24.98;14.57;;;;;;;7.20;57.10;100813.34;4966281;28;20027;-61
2022/03/02 07:40:15;;;;;;;24.15;15.18;;;;;;;7.27;56.63;100805.34;4963543;28;20078;-61
2022/03/02 07:42:42;;;;;;;25.88;14.35;;;;;;;8.70;54.96;100797.78;4958728;28;20042;-61
2022/03/02 07:45:08;;;;;;;30.55;15.40;;;;;;;10.53;48.96;100799.22;4961560;28;20573;-61
2022/03/02 07:47:34;;;;;;;28.10;15.93;;;;;;;11.72;44.74;100789.44;4971841;28;20036;-61
2022/03/02 07:50:00;;;;;;;27.42;13.48;;;;;;;12.68;42.05;100785.94;4970524;28;20065;-61
2022/03/02 07:52:28;;;;;;;25.85;14.90;;;;;;;13.40;41.06;100782.84;4970311;28;20062;-61
2022/03/02 07:54:58;;;;;;;30.48;15.60;;;;;;;14.53;38.62;100795.00;4969672;28;20098;-61
2022/03/02 07:57:24;;;;;;;31.70;16.15;;;;;;;14.45;38.96;100795.28;4953981;28;20022;-61
2022/03/02 07:59:52;;;;;;;24.70;14.27;;;;;;;13.49;39.72;100795.94;4970909;28;20023;-61
2022/03/02 08:02:20;;;;;;;26.02;13.77;;;;;;;11.77;42.23;100802.66;4970633;28;20034;-61
2022/03/02 08:04:51;;;;;;;20.77;11.73;;;;;;;10.79;44.90;100806.69;4971113;28;20069;-61
2022/03/02 08:07:17;;;;;;;20.65;10.48;;;;;;;9.23;47.74;100812.09;4971120;28;20023;-61
2022/03/02 08:09:42;;;;;;;18.38;11.05;;;;;;;8.29;50.62;100821.25;4963564;28;20157;-61
2022/03/02 08:12:11;;;;;;;17.05;10.88;;;;;;;7.80;51.92;100824.34;4968644;28;20030;-61
2022/03/02 08:14:37;;;;;;;21.83;9.93;;;;;;;7.32;53.65;100811.50;4970768;28;20030;-61
2022/03/02 08:17:03;;;;;;;16.83;9.73;;;;;;;7.04;55.29;100815.19;4970789;28;20472;-61
2022/03/02 08:19:31;;;;;;;18.48;10.68;;;;;;;6.89;57.03;100812.63;4964906;28;20031;-61
2022/03/02 08:22:03;;;;;;;18.42;10.38;;;;;;;6.81;57.31;100830.28;4955572;28;20019;-61
2022/03/02 08:24:29;;;;;;;19.70;10.68;;;;;;;6.72;59.15;100825.91;4970696;28;20026;-61
2022/03/02 08:27:01;;;;;;;18.88;10.73;;;;;;;6.95;59.15;100831.13;4968808;28;20490;-61
2022/03/02 08:29:30;;;;;;;27.23;11.45;;;;;;;6.78;59.03;100827.66;4969863;28;20497;-61
2022/03/02 08:31:58;;;;;;;19.73;10.93;;;;;;;6.83;60.40;100820.59;4966933;28;20546;-61
2022/03/02 08:34:25;;;;;;;23.08;11.40;;;;;;;6.84;60.20;100819.69;4964616;28;20027;-61
2022/03/02 08:36:53;;;;;;;20.75;11.40;;;;;;;6.84;59.27;100817.06;4970599;28;20079;-61
2022/03/02 08:39:19;;;;;;;22.10;12.40;;;;;;;6.90;59.01;100801.19;4970700;28;20375;-62
2022/03/02 08:41:45;;;;;;;19.40;11.98;;;;;;;7.32;58.39;100803.56;4970388;28;20034;-61
2022/03/02 08:44:12;;;;;;;19.92;11.50;;;;;;;7.55;56.34;100804.25;4971071;28;20049;-61
2022/03/02 08:46:38;;;;;;;20.48;11.32;;;;;;;7.50;55.77;100791.94;4971289;28;20122;-61
2022/03/02 08:49:05;;;;;;;23.23;13.23;;;;;;;7.09;56.22;100786.06;4963659;28;20043;-61
2022/03/02 08:51:31;;;;;;;23.73;12.48;;;;;;;6.99;57.04;100795.81;4963981;28;20495;-61
2022/03/02 08:53:59;;;;;;;17.85;11.20;;;;;;;6.96;58.10;100795.84;4970743;28;20030;-61
2022/03/02 08:56:25;;;;;;;21.20;13.70;;;;;;;6.90;58.92;100793.25;4969891;28;20034;-61
2022/03/02 08:58:52;;;;;;;22.75;11.38;;;;;;;6.82;59.17;100800.31;4970091;28;20118;-61
2022/03/02 09:01:18;;;;;;;21.77;12.23;;;;;;;6.91;58.51;100808.22;4953430;28;20059;-61
2022/03/02 09:03:48;;;;;;;24.23;14.32;;;;;;;6.79;58.51;100813.56;4967571;28;20041;-61
2022/03/02 09:06:15;;;;;;;24.00;12.20;;;;;;;6.74;59.31;100814.47;4969124;28;20037;-61
2022/03/02 09:08:41;;;;;;;18.98;10.60;;;;;;;6.75;60.97;100806.53;4969103;28;20038;-61
2022/03/02 09:11:08;;;;;;;18.52;10.65;;;;;;;6.73;60.34;100816.25;4968344;28;20030;-61
2022/03/02 09:13:36;;;;;;;23.20;11.68;;;;;;;6.58;59.60;100800.44;4969197;28;20022;-61
2022/03/02 09:16:02;;;;;;;17.50;10.77;;;;;;;6.48;60.06;100798.72;4968703;28;20706;-61
2022/03/02 09:18:28;;;;;;;19.58;10.50;;;;;;;6.38;60.42;100802.28;4968847;28;20093;-61
2022/03/02 09:20:57;;;;;;;21.65;11.27;;;;;;;6.48;60.38;100798.72;4969945;28;20051;-61
2022/03/02 09:23:28;;;;;;;18.30;10.77;;;;;;;6.49;60.17;100797.84;4970812;28;20046;-61
2022/03/02 09:25:56;;;;;;;20.02;11.43;;;;;;;6.62;60.68;100789.84;4970563;28;20038;-61
2022/03/02 09:28:28;;;;;;;19.20;10.85;;;;;;;6.62;59.24;100788.97;4970779;28;20026;-61
2022/03/02 09:30:53;;;;;;;21.88;11.25;;;;;;;6.58;59.90;100781.94;4969506;28;20062;-61
2022/03/02 09:33:22;;;;;;;19.67;11.13;;;;;;;6.62;58.78;100788.97;4970186;28;20435;-61
2022/03/02 09:35:48;;;;;;;24.40;12.07;;;;;;;6.53;58.50;100783.72;4968461;28;20580;-61
2022/03/02 09:38:14;;;;;;;23.48;12.02;;;;;;;6.57;60.51;100785.47;4969249;28;20026;-61
2022/03/02 09:40:43;;;;;;;23.85;12.13;;;;;;;6.69;59.31;100777.47;4970223;28;20106;-61
2022/03/02 09:43:15;;;;;;;19.13;11.25;;;;;;;6.64;59.18;100760.75;4970024;28;20049;-61
2022/03/02 09:45:42;;;;;;;18.58;10.68;;;;;;;6.91;58.82;100781.78;4970700;28;20029;-61
2022/03/02 09:48:15;;;;;;;23.02;12.25;;;;;;;7.01;59.73;100782.59;4970684;28;20097;-61
2022/03/02 09:50:40;;;;;;;19.60;11.55;;;;;;;7.06;60.14;100760.53;4969989;28;20026;-61
2022/03/02 09:53:12;;;;;;;19.60;11.57;;;;;;;6.99;59.83;100768.50;4970533;28;20027;-61
2022/03/02 09:55:40;;;;;;;21.52;10.98;;;;;;;7.22;60.65;100772.75;4970408;28;20075;-61
2022/03/02 09:58:06;;;;;;;21.00;11.13;;;;;;;7.52;59.29;100756.66;4970310;28;20035;-61
2022/03/02 10:00:32;;;;;;;18.98;10.35;;;;;;;7.81;58.71;100775.78;4970300;28;20506;-61
2022/03/02 10:02:59;;;;;;;18.40;9.95;;;;;;;7.93;58.18;100770.38;4970266;28;20054;-61
2022/03/02 10:05:27;;;;;;;20.73;10.20;;;;;;;7.93;55.87;100775.66;4956198;28;20031;-61
2022/03/02 10:08:10;;;;;;;28.20;11.88;;;;;;;8.03;56.76;100757.91;4953650;28;20102;-61
2022/03/02 10:10:40;;;;;;;18.33;10.77;;;;;;;7.96;56.16;100759.75;4973472;28;20026;-61
2022/03/02 10:13:11;;;;;;;20.70;11.38;;;;;;;7.98;56.00;100765.91;4972985;28;20030;-61
2022/03/02 10:15:39;;;;;;;19.17;11.32;;;;;;;7.75;55.59;100769.66;4973673;28;20026;-61
2022/03/02 10:18:07;;;;;;;21.70;10.90;;;;;;;7.71;57.11;100763.50;4973295;28;20058;-61
2022/03/02 10:20:42;;;;;;;19.58;10.05;;;;;;;7.79;57.29;100766.97;4973229;28;20039;-61
2022/03/02 10:23:28;;;;;;;18.55;9.82;;;;;;;7.84;56.86;100770.44;4974014;28;20022;-61
2022/03/02 10:26:06;;;;;;;18.33;10.30;;;;;;;7.86;55.57;100765.13;4973231;28;20495;-61
2022/03/02 10:28:45;;;;;;;16.80;9.82;;;;;;;7.97;55.12;100773.88;4973426;28;20058;-61
2022/03/02 10:31:28;;;;;;;22.42;9.93;;;;;;;8.00;55.42;100776.50;4973423;28;20506;-61
2022/03/02 10:33:56;;;;;;;18.98;10.25;;;;;;;8.00;54.61;100777.38;4973677;28;20023;-60
2022/03/02 10:36:28;;;;;;;16.00;9.90;;;;;;;8.09;54.77;100775.53;4973241;28;20541;-60
2022/03/02 10:38:59;;;;;;;19.15;10.73;;;;;;;8.22;54.76;100771.84;4973185;28;20128;-60
2022/03/02 10:41:27;;;;;;;19.92;11.82;;;;;;;8.37;55.26;100769.06;4973517;28;20534;-60
2022/03/02 10:43:53;;;;;;;17.73;11.60;;;;;;;8.43;54.92;100775.16;4973519;28;20407;-60
2022/03/02 10:46:23;;;;;;;22.30;11.57;;;;;;;8.53;56.07;100768.84;4973403;28;20031;-61
2022/03/02 10:49:03;;;;;;;22.75;11.40;;;;;;;8.70;55.56;100760.66;4972812;28;20050;-60
2022/03/02 10:51:30;;;;;;;19.30;10.82;;;;;;;9.01;52.93;100764.66;4972052;28;20045;-60
2022/03/02 10:53:56;;;;;;;18.35;10.38;;;;;;;9.18;52.41;100762.63;4973156;28;20483;-60
2022/03/02 10:56:26;;;;;;;17.63;10.20;;;;;;;9.32;52.34;100747.38;4972992;28;20048;-60
2022/03/02 10:58:54;;;;;;;15.10;9.80;;;;;;;9.69;50.60;100764.44;4972693;28;20038;-60
2022/03/02 11:01:20;;;;;;;17.45;10.10;;;;;;;9.91;50.65;100760.53;4972008;28;20085;-60
2022/03/02 11:03:46;;;;;;;19.17;10.00;;;;;;;10.15;50.23;100765.41;4972215;28;20027;-60
2022/03/02 11:06:13;;;;;;;20.27;11.13;;;;;;;10.31;48.75;100748.25;4952500;28;20395;-60
2022/03/02 11:08:41;;;;;;;16.15;9.27;;;;;;;10.43;48.24;100745.34;4961688;28;20014;-60
2022/03/02 11:11:08;;;;;;;18.65;9.80;;;;;;;10.77;47.87;100747.28;4972772;28;20038;-60
2022/03/02 11:13:34;;;;;;;16.08;10.35;;;;;;;10.74;46.62;100734.06;4972477;28;20026;-60
2022/03/02 11:16:02;;;;;;;16.70;10.02;;;;;;;10.71;46.06;100734.13;4972744;28;20046;-60
2022/03/02 11:18:50;;;;;;;17.92;10.18;;;;;;;11.18;45.04;100731.25;4972187;28;20515;-60
2022/03/02 11:21:28;;;;;;;17.02;8.98;;;;;;;11.57;45.07;100739.16;4972710;28;20035;-60
2022/03/02 11:24:01;;;;;;;15.63;9.30;;;;;;;11.47;44.76;100739.41;4971882;28;20030;-60